sensor_id;sensor_type;location;lat;lon;timestamp;temperature;humidity
20590;DHT22;10453;50.810;12.540;2023-11-19T00:01:08;4.90;99.90
20590;DHT22;10453;50.810;12.540;2023-11-19T00:05:26;4.90;99.90
20590;DHT22;10453;50.810;12.540;2023-11-19T00:09:44;5.00;99.90
20590;DHT22;10453;50.810;12.540;2023-11-19T00:14:01;5.10;99.90
20590;DHT22;10453;50.810;12.540;2023-11-19T00:18:19;5.10;99.90
20590;DHT22;10453;50.810;12.540;2023-11-19T00:22:36;5.10;99.90
20590;DHT22;10453;50.810;12.540;2023-11-19T00:27:05;5.10;99.90
20590;DHT22;10453;50.810;12.540;2023-11-19T00:31:24;5.20;99.90
20590;DHT22;10453;50.810;12.540;2023-11-19T00:35:43;5.30;99.90
20590;DHT22;10453;50.810;12.540;2023-11-19T00:40:01;5.40;99.90
20590;DHT22;10453;50.810;12.540;2023-11-19T00:44:22;5.30;99.90
20590;DHT22;10453;50.810;12.540;2023-11-19T00:48:40;5.30;99.90
20590;DHT22;10453;50.810;12.540;2023-11-19T00:52:57;5.30;99.90
20590;DHT22;10453;50.810;12.540;2023-11-19T00:57:14;5.20;99.90
20590;DHT22;10453;50.810;12.540;2023-11-19T01:01:31;5.20;99.90
20590;DHT22;10453;50.810;12.540;2023-11-19T01:05:49;5.30;99.90
20590;DHT22;10453;50.810;12.540;2023-11-19T01:10:06;5.30;99.90
20590;DHT22;10453;50.810;12.540;2023-11-19T01:14:26;5.20;99.90
20590;DHT22;10453;50.810;12.540;2023-11-19T01:18:43;5.10;99.90
20590;DHT22;10453;50.810;12.540;2023-11-19T01:23:00;5.20;99.90
20590;DHT22;10453;50.810;12.540;2023-11-19T01:27:18;5.30;99.90
20590;DHT22;10453;50.810;12.540;2023-11-19T01:31:35;5.30;99.90
20590;DHT22;10453;50.810;12.540;2023-11-19T01:35:54;5.30;99.90
20590;DHT22;10453;50.810;12.540;2023-11-19T01:40:12;5.40;99.90
20590;DHT22;10453;50.810;12.540;2023-11-19T01:44:30;5.50;99.90
20590;DHT22;10453;50.810;12.540;2023-11-19T01:48:49;5.50;99.90
20590;DHT22;10453;50.810;12.540;2023-11-19T01:53:07;5.50;99.90
20590;DHT22;10453;50.810;12.540;2023-11-19T01:57:24;5.40;99.90
20590;DHT22;10453;50.810;12.540;2023-11-19T02:01:42;5.40;99.90
20590;DHT22;10453;50.810;12.540;2023-11-19T02:06:00;5.50;99.90
20590;DHT22;10453;50.810;12.540;2023-11-19T02:10:17;5.40;99.90
20590;DHT22;10453;50.810;12.540;2023-11-19T02:14:36;5.40;99.90
20590;DHT22;10453;50.810;12.540;2023-11-19T02:18:53;5.40;99.90
20590;DHT22;10453;50.810;12.540;2023-11-19T02:23:12;5.50;99.90
20590;DHT22;10453;50.810;12.540;2023-11-19T02:32:03;5.50;99.90
20590;DHT22;10453;50.810;12.540;2023-11-19T02:36:20;5.50;99.90
20590;DHT22;10453;50.810;12.540;2023-11-19T02:40:39;5.50;99.90
20590;DHT22;10453;50.810;12.540;2023-11-19T02:44:56;5.50;99.90
20590;DHT22;10453;50.810;12.540;2023-11-19T02:49:14;5.60;99.90
20590;DHT22;10453;50.810;12.540;2023-11-19T02:53:32;5.60;99.90
20590;DHT22;10453;50.810;12.540;2023-11-19T02:57:50;5.60;99.90
20590;DHT22;10453;50.810;12.540;2023-11-19T03:02:08;5.60;99.90
20590;DHT22;10453;50.810;12.540;2023-11-19T03:06:28;5.60;99.90
20590;DHT22;10453;50.810;12.540;2023-11-19T03:10:46;5.70;99.90
20590;DHT22;10453;50.810;12.540;2023-11-19T03:15:03;5.70;99.90
20590;DHT22;10453;50.810;12.540;2023-11-19T03:19:21;5.70;99.90
20590;DHT22;10453;50.810;12.540;2023-11-19T03:23:41;5.80;99.90
20590;DHT22;10453;50.810;12.540;2023-11-19T03:28:02;5.80;99.90
20590;DHT22;10453;50.810;12.540;2023-11-19T03:32:19;5.80;99.90
20590;DHT22;10453;50.810;12.540;2023-11-19T03:36:37;5.90;99.90
20590;DHT22;10453;50.810;12.540;2023-11-19T03:40:54;5.90;99.90
20590;DHT22;10453;50.810;12.540;2023-11-19T03:45:11;6.00;99.90
20590;DHT22;10453;50.810;12.540;2023-11-19T03:49:29;6.00;99.90
20590;DHT22;10453;50.810;12.540;2023-11-19T03:53:46;6.10;99.90
20590;DHT22;10453;50.810;12.540;2023-11-19T03:58:03;6.10;99.90
20590;DHT22;10453;50.810;12.540;2023-11-19T04:02:21;6.20;99.90
20590;DHT22;10453;50.810;12.540;2023-11-19T04:06:38;6.30;99.90
20590;DHT22;10453;50.810;12.540;2023-11-19T04:10:55;6.30;99.90
20590;DHT22;10453;50.810;12.540;2023-11-19T04:15:14;6.30;99.90
20590;DHT22;10453;50.810;12.540;2023-11-19T04:19:32;6.40;99.90
20590;DHT22;10453;50.810;12.540;2023-11-19T04:23:50;6.40;99.90
20590;DHT22;10453;50.810;12.540;2023-11-19T04:28:07;6.40;99.90
20590;DHT22;10453;50.810;12.540;2023-11-19T04:32:25;6.40;99.90
20590;DHT22;10453;50.810;12.540;2023-11-19T04:36:43;6.40;99.90
20590;DHT22;10453;50.810;12.540;2023-11-19T04:41:01;6.40;99.90
20590;DHT22;10453;50.810;12.540;2023-11-19T04:45:18;6.40;99.90
20590;DHT22;10453;50.810;12.540;2023-11-19T04:49:36;6.40;99.90
20590;DHT22;10453;50.810;12.540;2023-11-19T04:53:56;6.50;99.90
20590;DHT22;10453;50.810;12.540;2023-11-19T04:58:14;6.50;99.90
20590;DHT22;10453;50.810;12.540;2023-11-19T05:02:31;6.60;99.90
20590;DHT22;10453;50.810;12.540;2023-11-19T05:06:48;6.60;99.90
20590;DHT22;10453;50.810;12.540;2023-11-19T05:11:05;6.60;99.90
20590;DHT22;10453;50.810;12.540;2023-11-19T05:15:23;6.60;99.90
20590;DHT22;10453;50.810;12.540;2023-11-19T05:19:41;6.60;99.90
20590;DHT22;10453;50.810;12.540;2023-11-19T05:23:58;6.70;99.90
20590;DHT22;10453;50.810;12.540;2023-11-19T05:28:16;6.80;99.90
20590;DHT22;10453;50.810;12.540;2023-11-19T05:32:33;6.80;99.90
20590;DHT22;10453;50.810;12.540;2023-11-19T05:36:50;6.80;99.90
20590;DHT22;10453;50.810;12.540;2023-11-19T05:41:08;6.90;99.90
20590;DHT22;10453;50.810;12.540;2023-11-19T05:45:25;6.90;99.90
20590;DHT22;10453;50.810;12.540;2023-11-19T05:49:43;7.00;99.90
20590;DHT22;10453;50.810;12.540;2023-11-19T05:54:00;7.00;99.90
20590;DHT22;10453;50.810;12.540;2023-11-19T05:58:18;7.00;99.90
20590;DHT22;10453;50.810;12.540;2023-11-19T06:02:35;7.10;99.90
20590;DHT22;10453;50.810;12.540;2023-11-19T06:06:54;7.10;99.90
20590;DHT22;10453;50.810;12.540;2023-11-19T06:11:14;7.10;99.90
20590;DHT22;10453;50.810;12.540;2023-11-19T06:15:36;7.30;99.90
20590;DHT22;10453;50.810;12.540;2023-11-19T06:19:53;7.20;99.90
20590;DHT22;10453;50.810;12.540;2023-11-19T06:24:10;7.20;99.90
20590;DHT22;10453;50.810;12.540;2023-11-19T06:28:27;7.20;99.90
20590;DHT22;10453;50.810;12.540;2023-11-19T06:32:45;7.20;99.90
20590;DHT22;10453;50.810;12.540;2023-11-19T06:37:02;7.30;99.90
20590;DHT22;10453;50.810;12.540;2023-11-19T06:41:24;7.40;99.90
20590;DHT22;10453;50.810;12.540;2023-11-19T06:45:41;7.50;99.90
20590;DHT22;10453;50.810;12.540;2023-11-19T06:49:58;7.50;99.90
20590;DHT22;10453;50.810;12.540;2023-11-19T06:54:16;7.60;99.90
20590;DHT22;10453;50.810;12.540;2023-11-19T06:58:36;7.60;99.90
20590;DHT22;10453;50.810;12.540;2023-11-19T07:02:53;7.80;99.90
20590;DHT22;10453;50.810;12.540;2023-11-19T07:07:11;7.80;99.90
20590;DHT22;10453;50.810;12.540;2023-11-19T07:11:28;7.80;99.90
20590;DHT22;10453;50.810;12.540;2023-11-19T07:15:46;7.90;99.90
20590;DHT22;10453;50.810;12.540;2023-11-19T07:20:03;7.90;99.90
20590;DHT22;10453;50.810;12.540;2023-11-19T07:24:21;7.90;99.90
20590;DHT22;10453;50.810;12.540;2023-11-19T07:28:39;7.90;99.90
20590;DHT22;10453;50.810;12.540;2023-11-19T07:32:59;7.90;99.90
20590;DHT22;10453;50.810;12.540;2023-11-19T07:37:16;7.80;99.90
20590;DHT22;10453;50.810;12.540;2023-11-19T07:41:34;7.90;99.90
20590;DHT22;10453;50.810;12.540;2023-11-19T07:45:51;7.90;99.90
20590;DHT22;10453;50.810;12.540;2023-11-19T07:50:09;7.90;99.90
20590;DHT22;10453;50.810;12.540;2023-11-19T07:54:26;7.90;99.90
20590;DHT22;10453;50.810;12.540;2023-11-19T07:58:44;7.90;99.90
20590;DHT22;10453;50.810;12.540;2023-11-19T08:03:01;8.10;99.90
20590;DHT22;10453;50.810;12.540;2023-11-19T08:07:19;8.30;99.90
20590;DHT22;10453;50.810;12.540;2023-11-19T08:11:36;8.40;99.90
20590;DHT22;10453;50.810;12.540;2023-11-19T08:15:53;8.60;99.90
20590;DHT22;10453;50.810;12.540;2023-11-19T08:20:11;8.80;99.90
20590;DHT22;10453;50.810;12.540;2023-11-19T08:24:29;9.20;99.90
20590;DHT22;10453;50.810;12.540;2023-11-19T08:28:46;9.30;99.90
20590;DHT22;10453;50.810;12.540;2023-11-19T08:33:04;9.30;99.90
20590;DHT22;10453;50.810;12.540;2023-11-19T08:37:27;9.50;99.90
20590;DHT22;10453;50.810;12.540;2023-11-19T08:41:45;9.50;99.90
20590;DHT22;10453;50.810;12.540;2023-11-19T08:46:03;9.60;99.90
20590;DHT22;10453;50.810;12.540;2023-11-19T08:50:20;9.60;99.90
20590;DHT22;10453;50.810;12.540;2023-11-19T08:54:38;9.70;99.90
20590;DHT22;10453;50.810;12.540;2023-11-19T08:58:59;9.70;99.90
20590;DHT22;10453;50.810;12.540;2023-11-19T09:03:16;9.70;99.90
20590;DHT22;10453;50.810;12.540;2023-11-19T09:07:33;9.80;99.90
20590;DHT22;10453;50.810;12.540;2023-11-19T09:11:52;9.90;99.90
20590;DHT22;10453;50.810;12.540;2023-11-19T09:16:11;9.80;99.90
20590;DHT22;10453;50.810;12.540;2023-11-19T09:20:29;10.10;99.90
20590;DHT22;10453;50.810;12.540;2023-11-19T09:24:50;10.20;99.90
20590;DHT22;10453;50.810;12.540;2023-11-19T09:29:08;10.30;99.90
20590;DHT22;10453;50.810;12.540;2023-11-19T09:33:28;10.40;99.90
20590;DHT22;10453;50.810;12.540;2023-11-19T09:37:45;10.50;99.90
20590;DHT22;10453;50.810;12.540;2023-11-19T09:42:03;10.50;99.90
20590;DHT22;10453;50.810;12.540;2023-11-19T09:46:21;10.40;99.90
20590;DHT22;10453;50.810;12.540;2023-11-19T09:50:41;10.40;99.90
20590;DHT22;10453;50.810;12.540;2023-11-19T09:55:02;10.40;99.90
20590;DHT22;10453;50.810;12.540;2023-11-19T09:59:25;10.50;99.90
20590;DHT22;10453;50.810;12.540;2023-11-19T10:03:44;10.70;99.90
20590;DHT22;10453;50.810;12.540;2023-11-19T10:08:04;11.00;99.90
20590;DHT22;10453;50.810;12.540;2023-11-19T10:12:23;11.30;99.90
20590;DHT22;10453;50.810;12.540;2023-11-19T10:16:40;11.70;99.90
20590;DHT22;10453;50.810;12.540;2023-11-19T10:20:58;11.90;99.90
20590;DHT22;10453;50.810;12.540;2023-11-19T10:25:26;12.00;99.90
20590;DHT22;10453;50.810;12.540;2023-11-19T10:29:47;12.30;99.90
20590;DHT22;10453;50.810;12.540;2023-11-19T10:34:24;12.80;99.90
20590;DHT22;10453;50.810;12.540;2023-11-19T10:38:55;13.10;99.90
20590;DHT22;10453;50.810;12.540;2023-11-19T10:43:12;13.00;99.90
20590;DHT22;10453;50.810;12.540;2023-11-19T10:47:30;12.60;99.90
20590;DHT22;10453;50.810;12.540;2023-11-19T10:51:52;12.50;99.90
20590;DHT22;10453;50.810;12.540;2023-11-19T10:56:11;12.40;99.90
20590;DHT22;10453;50.810;12.540;2023-11-19T11:00:41;12.30;99.90
20590;DHT22;10453;50.810;12.540;2023-11-19T11:05:00;12.30;99.90
20590;DHT22;10453;50.810;12.540;2023-11-19T11:09:21;12.30;99.90
20590;DHT22;10453;50.810;12.540;2023-11-19T11:13:42;12.30;99.90
20590;DHT22;10453;50.810;12.540;2023-11-19T11:18:00;12.40;99.90
20590;DHT22;10453;50.810;12.540;2023-11-19T11:22:38;12.50;99.90
20590;DHT22;10453;50.810;12.540;2023-11-19T11:40:24;12.40;99.90
20590;DHT22;10453;50.810;12.540;2023-11-19T11:49:25;12.30;99.90
20590;DHT22;10453;50.810;12.540;2023-11-19T11:53:47;11.90;99.90
20590;DHT22;10453;50.810;12.540;2023-11-19T11:58:08;11.60;99.90
20590;DHT22;10453;50.810;12.540;2023-11-19T12:02:26;11.20;99.90
20590;DHT22;10453;50.810;12.540;2023-11-19T12:07:11;11.10;99.90
20590;DHT22;10453;50.810;12.540;2023-11-19T12:11:29;10.70;99.90
20590;DHT22;10453;50.810;12.540;2023-11-19T12:20:17;10.70;99.90
20590;DHT22;10453;50.810;12.540;2023-11-19T12:24:53;11.00;99.90
20590;DHT22;10453;50.810;12.540;2023-11-19T12:29:10;11.30;99.90
20590;DHT22;10453;50.810;12.540;2023-11-19T12:33:30;11.60;99.90
20590;DHT22;10453;50.810;12.540;2023-11-19T12:37:48;11.80;99.90
20590;DHT22;10453;50.810;12.540;2023-11-19T12:42:06;12.00;99.90
20590;DHT22;10453;50.810;12.540;2023-11-19T12:46:23;12.00;99.90
20590;DHT22;10453;50.810;12.540;2023-11-19T12:50:53;12.10;99.90
20590;DHT22;10453;50.810;12.540;2023-11-19T12:55:28;12.00;99.90
20590;DHT22;10453;50.810;12.540;2023-11-19T12:59:56;12.10;99.90
20590;DHT22;10453;50.810;12.540;2023-11-19T13:04:18;12.20;99.90
20590;DHT22;10453;50.810;12.540;2023-11-19T13:08:39;12.30;99.90
20590;DHT22;10453;50.810;12.540;2023-11-19T13:13:03;12.10;99.90
20590;DHT22;10453;50.810;12.540;2023-11-19T13:17:21;12.00;99.90
20590;DHT22;10453;50.810;12.540;2023-11-19T13:21:42;12.20;99.90
20590;DHT22;10453;50.810;12.540;2023-11-19T13:26:00;12.20;99.90
20590;DHT22;10453;50.810;12.540;2023-11-19T13:30:26;12.00;99.90
20590;DHT22;10453;50.810;12.540;2023-11-19T13:34:44;11.80;99.90
20590;DHT22;10453;50.810;12.540;2023-11-19T13:39:02;11.80;99.90
20590;DHT22;10453;50.810;12.540;2023-11-19T13:43:23;11.70;99.90
20590;DHT22;10453;50.810;12.540;2023-11-19T13:47:44;11.90;99.90
20590;DHT22;10453;50.810;12.540;2023-11-19T13:52:01;11.90;99.90
20590;DHT22;10453;50.810;12.540;2023-11-19T13:56:19;11.90;99.90
20590;DHT22;10453;50.810;12.540;2023-11-19T14:00:36;11.80;99.90
20590;DHT22;10453;50.810;12.540;2023-11-19T14:04:54;11.80;99.90
20590;DHT22;10453;50.810;12.540;2023-11-19T14:09:12;11.60;99.90
20590;DHT22;10453;50.810;12.540;2023-11-19T14:13:32;11.70;99.90
20590;DHT22;10453;50.810;12.540;2023-11-19T14:17:51;11.70;99.90
20590;DHT22;10453;50.810;12.540;2023-11-19T14:22:10;11.80;99.90
20590;DHT22;10453;50.810;12.540;2023-11-19T14:26:27;11.80;99.90
20590;DHT22;10453;50.810;12.540;2023-11-19T14:30:44;11.70;99.90
20590;DHT22;10453;50.810;12.540;2023-11-19T14:35:03;11.60;99.90
20590;DHT22;10453;50.810;12.540;2023-11-19T14:39:21;11.50;99.90
20590;DHT22;10453;50.810;12.540;2023-11-19T14:43:42;11.30;99.90
20590;DHT22;10453;50.810;12.540;2023-11-19T14:47:59;11.20;99.90
20590;DHT22;10453;50.810;12.540;2023-11-19T14:52:17;11.10;99.90
20590;DHT22;10453;50.810;12.540;2023-11-19T14:56:34;11.20;99.90
20590;DHT22;10453;50.810;12.540;2023-11-19T15:00:52;11.10;99.90
20590;DHT22;10453;50.810;12.540;2023-11-19T15:05:10;10.90;99.90
20590;DHT22;10453;50.810;12.540;2023-11-19T15:09:27;10.80;99.90
20590;DHT22;10453;50.810;12.540;2023-11-19T15:13:44;10.70;99.90
20590;DHT22;10453;50.810;12.540;2023-11-19T15:18:02;10.80;99.90
20590;DHT22;10453;50.810;12.540;2023-11-19T15:22:19;10.80;99.90
20590;DHT22;10453;50.810;12.540;2023-11-19T15:26:37;10.80;99.90
20590;DHT22;10453;50.810;12.540;2023-11-19T15:30:55;10.90;99.90
20590;DHT22;10453;50.810;12.540;2023-11-19T15:35:13;10.60;99.90
20590;DHT22;10453;50.810;12.540;2023-11-19T15:39:31;10.60;99.90
20590;DHT22;10453;50.810;12.540;2023-11-19T15:43:50;10.50;99.90
20590;DHT22;10453;50.810;12.540;2023-11-19T15:48:09;10.40;99.90
20590;DHT22;10453;50.810;12.540;2023-11-19T15:52:31;10.40;99.90
20590;DHT22;10453;50.810;12.540;2023-11-19T15:56:49;10.20;99.90
20590;DHT22;10453;50.810;12.540;2023-11-19T16:01:07;10.10;99.90
20590;DHT22;10453;50.810;12.540;2023-11-19T16:05:25;9.90;99.90
20590;DHT22;10453;50.810;12.540;2023-11-19T16:09:43;9.70;99.90
20590;DHT22;10453;50.810;12.540;2023-11-19T16:14:01;9.60;99.90
20590;DHT22;10453;50.810;12.540;2023-11-19T16:18:19;9.60;99.90
20590;DHT22;10453;50.810;12.540;2023-11-19T16:22:37;9.80;99.90
20590;DHT22;10453;50.810;12.540;2023-11-19T16:26:55;10.10;99.90
20590;DHT22;10453;50.810;12.540;2023-11-19T16:31:12;10.20;99.90
20590;DHT22;10453;50.810;12.540;2023-11-19T16:35:31;10.20;99.90
20590;DHT22;10453;50.810;12.540;2023-11-19T16:39:49;10.10;99.90
20590;DHT22;10453;50.810;12.540;2023-11-19T16:44:07;10.30;99.90
20590;DHT22;10453;50.810;12.540;2023-11-19T16:48:26;10.50;99.90
20590;DHT22;10453;50.810;12.540;2023-11-19T16:52:45;10.30;99.90
20590;DHT22;10453;50.810;12.540;2023-11-19T16:57:03;10.30;99.90
20590;DHT22;10453;50.810;12.540;2023-11-19T17:01:26;10.30;99.90
20590;DHT22;10453;50.810;12.540;2023-11-19T17:05:48;10.60;99.90
20590;DHT22;10453;50.810;12.540;2023-11-19T17:10:06;10.60;99.90
20590;DHT22;10453;50.810;12.540;2023-11-19T17:14:25;10.60;99.90
20590;DHT22;10453;50.810;12.540;2023-11-19T17:18:45;10.40;99.90
20590;DHT22;10453;50.810;12.540;2023-11-19T17:23:03;10.20;99.90
20590;DHT22;10453;50.810;12.540;2023-11-19T17:27:22;10.20;99.90
20590;DHT22;10453;50.810;12.540;2023-11-19T17:31:41;10.10;99.90
20590;DHT22;10453;50.810;12.540;2023-11-19T17:36:01;10.10;99.90
20590;DHT22;10453;50.810;12.540;2023-11-19T17:40:20;10.10;99.90
20590;DHT22;10453;50.810;12.540;2023-11-19T17:44:39;10.20;99.90
20590;DHT22;10453;50.810;12.540;2023-11-19T17:48:56;10.10;99.90
20590;DHT22;10453;50.810;12.540;2023-11-19T17:53:14;10.00;99.90
20590;DHT22;10453;50.810;12.540;2023-11-19T17:57:31;10.00;99.90
20590;DHT22;10453;50.810;12.540;2023-11-19T18:01:53;10.10;99.90
20590;DHT22;10453;50.810;12.540;2023-11-19T18:06:18;10.00;99.90
20590;DHT22;10453;50.810;12.540;2023-11-19T18:10:35;9.90;99.90
20590;DHT22;10453;50.810;12.540;2023-11-19T18:14:53;9.90;99.90
20590;DHT22;10453;50.810;12.540;2023-11-19T18:19:15;9.90;99.90
20590;DHT22;10453;50.810;12.540;2023-11-19T18:23:35;9.90;99.90
20590;DHT22;10453;50.810;12.540;2023-11-19T18:27:53;9.80;99.90
20590;DHT22;10453;50.810;12.540;2023-11-19T18:32:10;9.80;99.90
20590;DHT22;10453;50.810;12.540;2023-11-19T18:36:36;9.90;99.90
20590;DHT22;10453;50.810;12.540;2023-11-19T18:40:55;9.90;99.90
20590;DHT22;10453;50.810;12.540;2023-11-19T18:45:13;9.90;99.90
20590;DHT22;10453;50.810;12.540;2023-11-19T18:49:34;10.00;99.90
20590;DHT22;10453;50.810;12.540;2023-11-19T18:53:53;10.00;99.90
20590;DHT22;10453;50.810;12.540;2023-11-19T18:58:11;10.00;99.90
20590;DHT22;10453;50.810;12.540;2023-11-19T19:02:29;10.10;99.90
20590;DHT22;10453;50.810;12.540;2023-11-19T19:06:46;10.10;99.90
20590;DHT22;10453;50.810;12.540;2023-11-19T19:11:06;10.10;99.90
20590;DHT22;10453;50.810;12.540;2023-11-19T19:15:23;10.10;99.90
20590;DHT22;10453;50.810;12.540;2023-11-19T19:19:44;10.20;99.90
20590;DHT22;10453;50.810;12.540;2023-11-19T19:24:01;10.30;99.90
20590;DHT22;10453;50.810;12.540;2023-11-19T19:28:21;10.30;99.90
20590;DHT22;10453;50.810;12.540;2023-11-19T19:32:40;10.30;99.90
20590;DHT22;10453;50.810;12.540;2023-11-19T19:37:02;10.40;99.90
20590;DHT22;10453;50.810;12.540;2023-11-19T19:41:21;10.40;99.90
20590;DHT22;10453;50.810;12.540;2023-11-19T19:45:38;10.30;99.90
20590;DHT22;10453;50.810;12.540;2023-11-19T19:49:56;10.30;99.90
20590;DHT22;10453;50.810;12.540;2023-11-19T19:54:14;10.30;99.90
20590;DHT22;10453;50.810;12.540;2023-11-19T19:58:33;10.20;99.90
20590;DHT22;10453;50.810;12.540;2023-11-19T20:02:50;10.00;99.90
20590;DHT22;10453;50.810;12.540;2023-11-19T20:07:08;9.90;99.90
20590;DHT22;10453;50.810;12.540;2023-11-19T20:11:27;9.80;99.90
20590;DHT22;10453;50.810;12.540;2023-11-19T20:15:49;9.80;99.90
20590;DHT22;10453;50.810;12.540;2023-11-19T20:20:10;9.80;99.90
20590;DHT22;10453;50.810;12.540;2023-11-19T20:24:28;9.80;99.90
20590;DHT22;10453;50.810;12.540;2023-11-19T20:28:46;9.90;99.90
20590;DHT22;10453;50.810;12.540;2023-11-19T20:33:23;9.90;99.90
20590;DHT22;10453;50.810;12.540;2023-11-19T20:37:42;9.90;99.90
20590;DHT22;10453;50.810;12.540;2023-11-19T20:42:00;9.90;99.90
20590;DHT22;10453;50.810;12.540;2023-11-19T20:46:17;10.00;99.90
20590;DHT22;10453;50.810;12.540;2023-11-19T20:50:34;10.00;99.90
20590;DHT22;10453;50.810;12.540;2023-11-19T20:54:52;9.90;99.90
20590;DHT22;10453;50.810;12.540;2023-11-19T20:59:09;10.00;99.90
20590;DHT22;10453;50.810;12.540;2023-11-19T21:03:29;10.10;99.90
20590;DHT22;10453;50.810;12.540;2023-11-19T21:07:49;10.10;99.90
20590;DHT22;10453;50.810;12.540;2023-11-19T21:12:06;10.20;99.90
20590;DHT22;10453;50.810;12.540;2023-11-19T21:16:25;10.20;99.90
20590;DHT22;10453;50.810;12.540;2023-11-19T21:20:43;10.10;99.90
20590;DHT22;10453;50.810;12.540;2023-11-19T21:25:06;10.10;99.90
20590;DHT22;10453;50.810;12.540;2023-11-19T21:29:24;10.00;99.90
20590;DHT22;10453;50.810;12.540;2023-11-19T21:33:43;10.10;99.90
20590;DHT22;10453;50.810;12.540;2023-11-19T21:38:01;10.30;99.90
20590;DHT22;10453;50.810;12.540;2023-11-19T21:42:18;10.30;99.90
20590;DHT22;10453;50.810;12.540;2023-11-19T21:46:35;10.20;99.90
20590;DHT22;10453;50.810;12.540;2023-11-19T21:50:53;10.20;99.90
20590;DHT22;10453;50.810;12.540;2023-11-19T21:55:11;10.30;99.90
20590;DHT22;10453;50.810;12.540;2023-11-19T21:59:29;10.20;99.90
20590;DHT22;10453;50.810;12.540;2023-11-19T22:03:46;10.20;99.90
20590;DHT22;10453;50.810;12.540;2023-11-19T22:08:04;10.10;99.90
20590;DHT22;10453;50.810;12.540;2023-11-19T22:12:24;10.10;99.90
20590;DHT22;10453;50.810;12.540;2023-11-19T22:16:42;10.20;99.90
20590;DHT22;10453;50.810;12.540;2023-11-19T22:21:00;10.20;99.90
20590;DHT22;10453;50.810;12.540;2023-11-19T22:25:21;10.20;99.90
20590;DHT22;10453;50.810;12.540;2023-11-19T22:29:44;10.30;99.90
20590;DHT22;10453;50.810;12.540;2023-11-19T22:34:05;10.30;99.90
20590;DHT22;10453;50.810;12.540;2023-11-19T22:38:23;10.30;99.90
20590;DHT22;10453;50.810;12.540;2023-11-19T22:42:40;10.20;99.90
20590;DHT22;10453;50.810;12.540;2023-11-19T22:46:59;10.00;99.90
20590;DHT22;10453;50.810;12.540;2023-11-19T22:51:17;9.80;99.90
20590;DHT22;10453;50.810;12.540;2023-11-19T22:55:34;9.60;99.90
20590;DHT22;10453;50.810;12.540;2023-11-19T22:59:52;9.40;99.90
20590;DHT22;10453;50.810;12.540;2023-11-19T23:04:10;9.20;99.90
20590;DHT22;10453;50.810;12.540;2023-11-19T23:08:29;9.20;99.90
20590;DHT22;10453;50.810;12.540;2023-11-19T23:12:46;9.10;99.90
20590;DHT22;10453;50.810;12.540;2023-11-19T23:17:04;9.10;99.90
20590;DHT22;10453;50.810;12.540;2023-11-19T23:21:21;9.00;99.90
20590;DHT22;10453;50.810;12.540;2023-11-19T23:25:38;9.00;99.90
20590;DHT22;10453;50.810;12.540;2023-11-19T23:29:56;8.90;99.90
20590;DHT22;10453;50.810;12.540;2023-11-19T23:34:13;8.90;99.90
20590;DHT22;10453;50.810;12.540;2023-11-19T23:38:31;8.90;99.90
20590;DHT22;10453;50.810;12.540;2023-11-19T23:42:48;9.00;99.90
20590;DHT22;10453;50.810;12.540;2023-11-19T23:47:05;8.90;99.90
20590;DHT22;10453;50.810;12.540;2023-11-19T23:51:23;8.90;99.90
20590;DHT22;10453;50.810;12.540;2023-11-19T23:55:40;8.90;99.90
